Time,TemperatureF,DewpointF,PressureIn,WindDirection,WindDirectionDegrees,WindSpeedMPH,WindSpeedGustMPH,Humidity,HourlyPrecipIn,Conditions,Clouds,dailyrainin,SoftwareType,DateUTC
2013-05-29 00:12:00,58.5,47.6,29.69,West,270,6.3,-999.0,67,-99.99,,,0.00,Acu-Link.com,2013-05-29 07:12:00,
2013-05-29 00:27:00,58.1,47.6,29.69,WSW,247,4.7,-999.0,68,-99.99,,,0.00,Acu-Link.com,2013-05-29 07:27:00,
2013-05-29 00:43:00,57.9,47.8,29.68,ESE,112,1.7,-999.0,69,-99.99,,,0.00,Acu-Link.com,2013-05-29 07:43:00,
2013-05-29 00:58:00,57.6,48.3,29.69,WSW,247,1.7,-999.0,71,-99.99,,,0.00,Acu-Link.com,2013-05-29 07:58:00,
2013-05-29 01:14:00,57.6,48.3,29.70,North,0,3.7,-999.0,71,-99.99,,,0.00,Acu-Link.com,2013-05-29 08:14:00,
2013-05-29 01:29:00,57.6,48.3,29.70,West,270,4.2,-999.0,71,-99.99,,,0.00,Acu-Link.com,2013-05-29 08:29:00,
2013-05-29 01:44:00,57.2,47.9,29.69,SW,225,2.7,-999.0,71,-99.99,,,0.00,Acu-Link.com,2013-05-29 08:44:00,
2013-05-29 01:59:00,57.0,48.1,29.68,SSW,202,4.7,-999.0,72,-99.99,,,0.00,Acu-Link.com,2013-05-29 08:59:00,
2013-05-29 02:14:00,56.8,47.9,29.68,WNW,292,6.8,-999.0,72,-99.99,,,0.00,Acu-Link.com,2013-05-29 09:14:00,
2013-05-29 02:29:00,56.8,47.9,29.67,WSW,247,7.3,-999.0,72,-99.99,,,0.00,Acu-Link.com,2013-05-29 09:29:00,
2013-05-29 02:45:00,57.0,47.3,29.67,West,270,4.7,-999.0,70,-99.99,,,0.00,Acu-Link.com,2013-05-29 09:45:00,
2013-05-29 03:00:00,57.6,46.7,29.69,West,270,3.7,-999.0,67,-99.99,,,0.00,Acu-Link.com,2013-05-29 10:00:00,
2013-05-29 03:15:00,57.6,46.7,29.68,SW,225,3.7,-999.0,67,-99.99,,,0.00,Acu-Link.com,2013-05-29 10:15:00,
2013-05-29 03:30:00,57.6,46.7,29.68,WSW,247,6.8,-999.0,67,-99.99,,,0.00,Acu-Link.com,2013-05-29 10:30:00,
2013-05-29 03:46:00,57.6,47.5,29.68,West,270,6.3,-999.0,69,-99.99,,,0.00,Acu-Link.com,2013-05-29 10:46:00,
2013-05-29 04:01:00,57.6,47.9,29.68,WSW,247,4.2,-999.0,70,-99.99,,,0.00,Acu-Link.com,2013-05-29 11:01:00,
2013-05-29 04:16:00,57.4,48.1,29.68,SW,225,6.8,-999.0,71,-99.99,,,0.00,Acu-Link.com,2013-05-29 11:16:00,
2013-05-29 04:31:00,57.2,48.6,29.68,WNW,292,2.7,-999.0,73,-99.99,,,0.00,Acu-Link.com,2013-05-29 11:31:00,
2013-05-29 04:46:00,57.2,48.6,29.68,SW,225,3.2,-999.0,73,-99.99,,,0.00,Acu-Link.com,2013-05-29 11:46:00,
2013-05-29 05:02:00,57.2,49.0,29.68,West,270,1.7,-999.0,74,-99.99,,,0.00,Acu-Link.com,2013-05-29 12:02:00,
2013-05-29 05:17:00,57.0,48.8,29.68,SW,225,3.2,-999.0,74,-99.99,,,0.00,Acu-Link.com,2013-05-29 12:17:00,
2013-05-29 05:32:00,56.8,49.0,29.69,WSW,247,3.7,-999.0,75,-99.99,,,0.00,Acu-Link.com,2013-05-29 12:32:00,
2013-05-29 05:47:00,56.7,49.2,29.69,South,180,1.7,-999.0,76,-99.99,,,0.00,Acu-Link.com,2013-05-29 12:47:00,
2013-05-29 06:02:00,56.7,49.6,29.68,SW,225,2.2,-999.0,77,-99.99,,,0.00,Acu-Link.com,2013-05-29 13:02:00,
2013-05-29 06:18:00,56.7,49.6,29.69,NNE,22,3.7,-999.0,77,-99.99,,,0.00,Acu-Link.com,2013-05-29 13:18:00,
2013-05-29 06:33:00,56.8,50.0,29.69,NNE,22,1.7,-999.0,78,-99.99,,,0.00,Acu-Link.com,2013-05-29 13:33:00,
2013-05-29 06:48:00,57.2,50.7,29.69,SSW,202,1.7,-999.0,79,-99.99,,,0.00,Acu-Link.com,2013-05-29 13:48:00,
2013-05-29 07:03:00,57.4,51.6,29.69,West,270,4.2,-999.0,81,-99.99,,,0.00,Acu-Link.com,2013-05-29 14:03:00,
2013-05-29 07:18:00,58.5,52.7,29.70,SW,225,2.2,-999.0,81,-99.99,,,0.00,Acu-Link.com,2013-05-29 14:18:00,
2013-05-29 07:34:00,58.1,53.0,29.69,SW,225,4.2,-999.0,83,-99.99,,,0.00,Acu-Link.com,2013-05-29 14:34:00,
2013-05-29 07:49:00,58.6,53.5,29.71,SW,225,3.2,-999.0,83,-99.99,,,0.00,Acu-Link.com,2013-05-29 14:49:00,
2013-05-29 08:04:00,59.0,53.8,29.70,SW,225,5.3,-999.0,83,-99.99,,,0.00,Acu-Link.com,2013-05-29 15:04:00,
2013-05-29 08:19:00,59.5,54.0,29.72,West,270,8.3,-999.0,82,-99.99,,,0.00,Acu-Link.com,2013-05-29 15:19:00,
2013-05-29 08:35:00,59.9,54.4,29.72,West,270,3.7,-999.0,82,-99.99,,,0.00,Acu-Link.com,2013-05-29 15:35:00,
2013-05-29 08:50:00,60.4,54.2,29.72,NW,315,8.9,-999.0,80,-99.99,,,0.00,Acu-Link.com,2013-05-29 15:50:00,
2013-05-29 09:05:00,60.4,53.9,29.73,West,270,4.2,-999.0,79,-99.99,,,0.00,Acu-Link.com,2013-05-29 16:05:00,
2013-05-29 09:20:00,61.0,53.7,29.72,WNW,292,14.0,-999.0,77,-99.99,,,0.00,Acu-Link.com,2013-05-29 16:20:00,
2013-05-29 09:35:00,61.5,53.9,29.72,West,270,3.2,-999.0,76,-99.99,,,0.00,Acu-Link.com,2013-05-29 16:35:00,
2013-05-29 09:51:00,61.3,53.3,29.71,WNW,292,7.3,-999.0,75,-99.99,,,0.00,Acu-Link.com,2013-05-29 16:51:00,
2013-05-29 10:06:00,61.9,53.5,29.71,WSW,247,8.3,-999.0,74,-99.99,,,0.00,Acu-Link.com,2013-05-29 17:06:00,
2013-05-29 10:21:00,62.2,53.1,29.71,SW,225,4.7,-999.0,72,-99.99,,,0.00,Acu-Link.com,2013-05-29 17:21:00,
2013-05-29 10:36:00,62.8,52.9,29.71,NE,45,4.7,-999.0,70,-99.99,,,0.00,Acu-Link.com,2013-05-29 17:36:00,
2013-05-29 10:51:00,64.4,53.2,29.71,North,0,5.3,-999.0,67,-99.99,,,0.00,Acu-Link.com,2013-05-29 17:51:00,
2013-05-29 11:07:00,64.9,53.7,29.70,West,270,6.3,-999.0,67,-99.99,,,0.00,Acu-Link.com,2013-05-29 18:07:00,
2013-05-29 11:22:00,66.2,54.1,29.70,NNW,337,4.2,-999.0,65,-99.99,,,0.00,Acu-Link.com,2013-05-29 18:22:00,
2013-05-29 11:37:00,65.3,53.6,29.71,West,270,6.3,-999.0,66,-99.99,,,0.00,Acu-Link.com,2013-05-29 18:37:00,
2013-05-29 11:52:00,66.4,52.5,29.70,WSW,247,7.3,-999.0,61,-99.99,,,0.00,Acu-Link.com,2013-05-29 18:52:00,
2013-05-29 12:07:00,66.4,53.0,29.71,West,270,2.2,-999.0,62,-99.99,,,0.00,Acu-Link.com,2013-05-29 19:07:00,
2013-05-29 12:23:00,68.5,53.6,29.71,WNW,292,5.8,-999.0,59,-99.99,,,0.00,Acu-Link.com,2013-05-29 19:23:00,
2013-05-29 12:38:00,67.1,52.7,29.71,SSW,202,4.7,-999.0,60,-99.99,,,0.00,Acu-Link.com,2013-05-29 19:38:00,
2013-05-29 12:53:00,68.0,52.7,29.70,WSW,247,8.3,-999.0,58,-99.99,,,0.00,Acu-Link.com,2013-05-29 19:53:00,
2013-05-29 13:08:00,69.4,52.5,29.69,West,270,5.8,-999.0,55,-99.99,,,0.00,Acu-Link.com,2013-05-29 20:08:00,
2013-05-29 13:24:00,70.0,52.1,29.68,NNE,22,4.7,-999.0,53,-99.99,,,0.00,Acu-Link.com,2013-05-29 20:24:00,
2013-05-29 13:39:00,70.5,51.5,29.68,South,180,5.8,-999.0,51,-99.99,,,0.00,Acu-Link.com,2013-05-29 20:39:00,
2013-05-29 13:54:00,70.9,52.4,29.68,West,270,4.2,-999.0,52,-99.99,,,0.00,Acu-Link.com,2013-05-29 20:54:00,
2013-05-29 14:09:00,71.2,52.1,29.67,WNW,292,4.2,-999.0,51,-99.99,,,0.00,Acu-Link.com,2013-05-29 21:09:00,
2013-05-29 14:24:00,73.6,52.7,29.67,NNE,22,5.8,-999.0,48,-99.99,,,0.00,Acu-Link.com,2013-05-29 21:24:00,
2013-05-29 14:40:00,70.3,52.3,29.68,SW,225,3.7,-999.0,53,-99.99,,,0.00,Acu-Link.com,2013-05-29 21:40:00,
2013-05-29 14:55:00,70.0,51.6,29.66,West,270,8.3,-999.0,52,-99.99,,,0.00,Acu-Link.com,2013-05-29 21:55:00,
2013-05-29 15:10:00,70.5,52.0,29.66,SW,225,4.7,-999.0,52,-99.99,,,0.00,Acu-Link.com,2013-05-29 22:10:00,
2013-05-29 15:25:00,70.2,51.7,29.67,WSW,247,13.0,-999.0,52,-99.99,,,0.00,Acu-Link.com,2013-05-29 22:25:00,
2013-05-29 15:40:00,69.8,51.9,29.66,WSW,247,7.3,-999.0,53,-99.99,,,0.00,Acu-Link.com,2013-05-29 22:40:00,
2013-05-29 15:56:00,67.6,50.9,29.66,WNW,292,15.5,-999.0,55,-99.99,,,0.00,Acu-Link.com,2013-05-29 22:56:00,
2013-05-29 16:11:00,67.8,51.0,29.66,West,270,15.0,-999.0,55,-99.99,,,0.00,Acu-Link.com,2013-05-29 23:11:00,
2013-05-29 16:26:00,67.3,50.6,29.66,West,270,9.9,-999.0,55,-99.99,,,0.00,Acu-Link.com,2013-05-29 23:26:00,
2013-05-29 16:41:00,67.3,50.6,29.65,West,270,12.5,-999.0,55,-99.99,,,0.00,Acu-Link.com,2013-05-29 23:41:00,
2013-05-29 16:57:00,66.4,49.7,29.65,SW,225,10.9,-999.0,55,-99.99,,,0.00,Acu-Link.com,2013-05-29 23:57:00,
2013-05-29 17:12:00,65.8,49.2,29.66,WSW,247,11.9,-999.0,55,-99.99,,,0.00,Acu-Link.com,2013-05-30 00:12:00,
2013-05-29 17:27:00,66.4,49.7,29.65,WNW,292,4.2,-999.0,55,-99.99,,,0.00,Acu-Link.com,2013-05-30 00:27:00,
2013-05-29 17:42:00,67.6,49.3,29.66,West,270,11.4,-999.0,52,-99.99,,,0.00,Acu-Link.com,2013-05-30 00:42:00,
2013-05-29 17:58:00,67.8,49.0,29.65,West,270,9.4,-999.0,51,-99.99,,,0.00,Acu-Link.com,2013-05-30 00:58:00,
2013-05-29 18:13:00,67.3,49.1,29.64,West,270,12.5,-999.0,52,-99.99,,,0.00,Acu-Link.com,2013-05-30 01:13:00,
2013-05-29 18:28:00,66.2,48.6,29.64,WSW,247,10.4,-999.0,53,-99.99,,,0.00,Acu-Link.com,2013-05-30 01:28:00,
2013-05-29 18:43:00,65.1,48.5,29.64,WSW,247,10.9,-999.0,55,-99.99,,,0.00,Acu-Link.com,2013-05-30 01:43:00,
2013-05-29 18:59:00,64.4,48.8,29.63,West,270,8.3,-999.0,57,-99.99,,,0.00,Acu-Link.com,2013-05-30 01:59:00,
2013-05-29 19:14:00,63.7,48.2,29.63,SW,225,5.8,-999.0,57,-99.99,,,0.00,Acu-Link.com,2013-05-30 02:14:00,
2013-05-29 19:29:00,62.8,47.8,29.64,WSW,247,10.9,-999.0,58,-99.99,,,0.00,Acu-Link.com,2013-05-30 02:29:00,
2013-05-29 19:44:00,62.4,47.4,29.64,West,270,8.9,-999.0,58,-99.99,,,0.00,Acu-Link.com,2013-05-30 02:44:00,
2013-05-29 19:59:00,61.5,46.6,29.65,West,270,7.8,-999.0,58,-99.99,,,0.00,Acu-Link.com,2013-05-30 02:59:00,
2013-05-29 20:15:00,60.3,46.8,29.66,NW,315,10.9,-999.0,61,-99.99,,,0.00,Acu-Link.com,2013-05-30 03:15:00,
2013-05-29 20:30:00,59.5,46.9,29.66,WSW,247,3.7,-999.0,63,-99.99,,,0.00,Acu-Link.com,2013-05-30 03:30:00,
2013-05-29 20:45:00,58.5,46.8,29.65,ENE,67,2.2,-999.0,65,-99.99,,,0.00,Acu-Link.com,2013-05-30 03:45:00,
2013-05-29 21:00:00,57.2,46.7,29.65,WSW,247,3.2,-999.0,68,-99.99,,,0.00,Acu-Link.com,2013-05-30 04:00:00,
2013-05-29 21:15:00,56.7,47.0,29.67,WSW,247,3.2,-999.0,70,-99.99,,,0.00,Acu-Link.com,2013-05-30 04:15:00,
2013-05-29 21:31:00,56.8,46.7,29.68,SW,225,4.7,-999.0,69,-99.99,,,0.00,Acu-Link.com,2013-05-30 04:31:00,
2013-05-29 21:46:00,56.8,47.1,29.68,West,270,4.7,-999.0,70,-99.99,,,0.00,Acu-Link.com,2013-05-30 04:46:00,
2013-05-29 22:01:00,55.8,46.9,29.68,WNW,292,11.4,-999.0,72,-99.99,,,0.00,Acu-Link.com,2013-05-30 05:01:00,
2013-05-29 22:16:00,55.6,46.7,29.69,SSW,202,10.9,-999.0,72,-99.99,,,0.00,Acu-Link.com,2013-05-30 05:16:00,
2013-05-29 22:32:00,55.2,46.7,29.69,WSW,247,6.8,-999.0,73,-99.99,,,0.00,Acu-Link.com,2013-05-30 05:32:00,
2013-05-29 22:47:00,55.6,47.1,29.68,SW,225,9.9,-999.0,73,-99.99,,,0.00,Acu-Link.com,2013-05-30 05:47:00,
2013-05-29 23:02:00,55.9,47.0,29.69,West,270,7.8,-999.0,72,-99.99,,,0.00,Acu-Link.com,2013-05-30 06:02:00,
2013-05-29 23:17:00,55.9,46.6,29.69,West,270,3.7,-999.0,71,-99.99,,,0.00,Acu-Link.com,2013-05-30 06:17:00,
2013-05-29 23:32:00,55.6,46.7,29.69,SW,225,6.8,-999.0,72,-99.99,,,0.00,Acu-Link.com,2013-05-30 06:32:00,
2013-05-29 23:48:00,54.9,46.8,29.69,WSW,247,3.7,-999.0,74,-99.99,,,0.00,Acu-Link.com,2013-05-30 06:48:00,